AirportContent of METAR report
LYBEMETAR LYBE 161500Z 31006KT CAVOK 29/11 Q1016 NOSIG=
LYBTMETAR LYBT 161500Z 05003KT 340V110 CAVOK 29/11 Q1016 NOSIG=
LYKVMETAR LYKV 161500Z 30007KT 260V330 CAVOK 30/06 Q1016 NOSIG=
LYNIMETAR LYNI 161500Z VRB11KT CAVOK 29/08 Q1016 NOSIG=
LYVRMETAR LYVR 161500Z VRB03KT CAVOK 28/11 Q1016 NOSIG=
LYUZMETAR LYUZ 161500Z 35004KT 310V070 CAVOK 24/08 Q1020=
LYPGMETAR LYPG 161500Z 16006KT 120V200 CAVOK 30/12 Q1015 NOSIG=
LYTVMETAR LYTV 161500Z 21003KT 160V260 CAVOK 26/17 Q1016 NOSIG=

Data loaded: 2019-09-16 15:14:03 UTC

METAR, TAF, AIRMET, GAMET, SIGMET

Important note: MET information on these web pages are informative and restricted to aeronautical users, must not be used for any commercial purpose, and do not replace flight documentation.